createdAt,value
2018-03-02T00:02:25.993Z,99.90
2018-03-02T00:04:53.473Z,99.90
2018-03-02T00:07:20.921Z,99.90
2018-03-02T00:09:48.424Z,99.90
2018-03-02T00:12:15.872Z,99.90
2018-03-02T00:14:43.398Z,99.90
2018-03-02T00:17:10.853Z,99.90
2018-03-02T00:19:38.326Z,99.90
2018-03-02T00:22:10.981Z,99.90
2018-03-02T00:24:38.484Z,99.90
2018-03-02T00:27:10.519Z,99.90
2018-03-02T00:29:38.986Z,99.90
2018-03-02T00:32:07.373Z,99.90
2018-03-02T00:34:35.749Z,99.90
2018-03-02T00:37:13.787Z,99.90
2018-03-02T00:39:41.231Z,99.90
2018-03-02T00:42:08.704Z,99.90
2018-03-02T00:44:36.881Z,99.90
2018-03-02T00:47:06.093Z,99.90
2018-03-02T00:49:34.428Z,99.90
2018-03-02T00:52:06.210Z,99.90
2018-03-02T00:54:35.970Z,99.90
2018-03-02T00:57:03.889Z,99.90
2018-03-02T00:59:33.824Z,99.90
2018-03-02T01:02:01.686Z,99.90
2018-03-02T01:04:29.942Z,99.90
2018-03-02T01:07:00.735Z,99.90
2018-03-02T01:09:28.236Z,99.90
2018-03-02T01:11:56.986Z,99.90
2018-03-02T01:14:25.177Z,99.90
2018-03-02T01:16:53.749Z,99.90
2018-03-02T01:19:21.208Z,99.90
2018-03-02T01:21:51.929Z,99.90
2018-03-02T01:24:19.390Z,99.90
2018-03-02T01:26:46.848Z,99.90
2018-03-02T01:29:14.308Z,99.90
2018-03-02T01:31:41.759Z,99.90
2018-03-02T01:34:09.228Z,99.90
2018-03-02T01:36:40.721Z,99.90
2018-03-02T01:39:08.751Z,99.90
2018-03-02T01:41:36.220Z,99.90
2018-03-02T01:44:05.200Z,99.90
2018-03-02T01:46:33.616Z,99.90
2018-03-02T01:49:01.645Z,99.90
2018-03-02T01:51:40.790Z,99.90
2018-03-02T01:54:09.728Z,99.90
2018-03-02T01:56:37.192Z,99.90
2018-03-02T01:59:05.496Z,99.90
2018-03-02T02:01:32.948Z,99.90
2018-03-02T02:04:00.917Z,99.90
2018-03-02T02:06:30.948Z,99.90
2018-03-02T02:08:58.852Z,99.90
2018-03-02T02:11:26.641Z,99.90
2018-03-02T02:13:54.969Z,99.90
2018-03-02T02:16:22.458Z,99.90
2018-03-02T02:18:50.781Z,99.90
2018-03-02T02:21:18.359Z,99.90
2018-03-02T02:23:46.441Z,99.90
2018-03-02T02:26:13.894Z,99.90
2018-03-02T02:28:41.432Z,99.90
2018-03-02T02:31:09.665Z,99.90
2018-03-02T02:33:37.317Z,99.90
2018-03-02T02:36:04.777Z,99.90
2018-03-02T02:38:35.736Z,99.90
2018-03-02T02:41:06.086Z,99.90
2018-03-02T02:43:34.338Z,99.90
2018-03-02T02:46:03.065Z,99.90
2018-03-02T02:48:31.319Z,99.90
2018-03-02T02:50:58.808Z,99.90
2018-03-02T02:53:29.904Z,99.90
2018-03-02T02:55:57.933Z,99.90
2018-03-02T02:58:25.409Z,99.90
2018-03-02T03:00:53.725Z,99.90
2018-03-02T03:03:21.235Z,99.90
2018-03-02T03:05:48.725Z,99.90
2018-03-02T03:08:17.612Z,99.90
2018-03-02T03:10:45.098Z,99.90
2018-03-02T03:13:12.557Z,99.90
2018-03-02T03:15:40.496Z,99.90
2018-03-02T03:18:08.593Z,99.90
2018-03-02T03:20:37.361Z,99.90
2018-03-02T03:23:04.816Z,99.90
2018-03-02T03:25:32.297Z,99.90
2018-03-02T03:27:59.756Z,99.90
2018-03-02T03:30:27.233Z,99.90
2018-03-02T03:32:55.448Z,99.90
2018-03-02T03:35:24.333Z,99.90
2018-03-02T03:37:51.808Z,99.90
2018-03-02T03:40:19.982Z,99.90
2018-03-02T03:42:48.352Z,99.90
2018-03-02T03:45:16.179Z,99.90
2018-03-02T03:47:43.665Z,99.90
2018-03-02T03:50:11.628Z,99.90
2018-03-02T03:52:40.188Z,99.90
2018-03-02T03:55:09.577Z,99.90
2018-03-02T03:57:37.032Z,99.90
2018-03-02T04:00:04.557Z,99.90
2018-03-02T04:02:32.360Z,99.90
2018-03-02T04:04:59.812Z,99.90
2018-03-02T04:07:27.268Z,99.90
2018-03-02T04:09:55.385Z,99.90
2018-03-02T04:12:25.147Z,99.90
2018-03-02T04:14:52.603Z,99.90
2018-03-02T04:17:21.084Z,99.90
2018-03-02T04:19:48.611Z,99.90
2018-03-02T04:22:16.120Z,99.90
2018-03-02T04:24:44.745Z,99.90
2018-03-02T04:27:13.141Z,99.90
2018-03-02T04:29:40.626Z,99.90
2018-03-02T04:32:08.089Z,99.90
2018-03-02T04:34:35.561Z,99.90
2018-03-02T04:37:03.805Z,99.90
2018-03-02T04:39:35.887Z,99.90
2018-03-02T04:42:04.576Z,99.90
2018-03-02T04:44:32.687Z,99.90
2018-03-02T04:47:00.192Z,99.90
2018-03-02T04:49:27.661Z,99.90
2018-03-02T04:51:55.195Z,99.90
2018-03-02T04:54:24.718Z,99.90
2018-03-02T04:56:52.221Z,99.90
2018-03-02T04:59:20.452Z,99.90
2018-03-02T05:01:47.932Z,99.90
2018-03-02T05:04:17.887Z,99.90
2018-03-02T05:06:45.921Z,99.90
2018-03-02T05:09:15.255Z,99.90
2018-03-02T05:11:42.748Z,99.90
2018-03-02T05:14:10.222Z,99.90
2018-03-02T05:16:37.682Z,99.90
2018-03-02T05:19:05.172Z,99.90
2018-03-02T05:21:32.686Z,99.90
2018-03-02T05:24:00.656Z,99.90
2018-03-02T05:26:32.049Z,99.90
2018-03-02T05:28:59.521Z,99.90
2018-03-02T05:31:26.988Z,99.90
2018-03-02T05:33:55.314Z,99.90
2018-03-02T05:36:22.756Z,99.90
2018-03-02T05:38:50.228Z,99.90
2018-03-02T05:41:21.102Z,99.90
2018-03-02T05:43:48.552Z,99.90
2018-03-02T05:46:16.111Z,99.90
2018-03-02T05:48:43.593Z,99.90
2018-03-02T05:51:11.860Z,99.90
2018-03-02T05:53:39.575Z,99.90
2018-03-02T05:56:10.768Z,99.90
2018-03-02T05:58:38.230Z,99.90
2018-03-02T06:01:06.049Z,99.90
2018-03-02T06:03:33.559Z,99.90
2018-03-02T06:06:01.789Z,99.90
2018-03-02T06:08:29.238Z,99.90
2018-03-02T06:10:56.846Z,99.90
2018-03-02T06:13:24.358Z,99.90
2018-03-02T06:15:51.840Z,99.90
2018-03-02T06:18:19.298Z,99.90
2018-03-02T06:20:46.776Z,99.90
2018-03-02T06:23:14.226Z,99.90
2018-03-02T06:25:42.342Z,99.90
2018-03-02T06:28:09.845Z,99.90
2018-03-02T06:30:38.725Z,99.90
2018-03-02T06:33:06.206Z,99.90
2018-03-02T06:35:33.696Z,99.90
2018-03-02T06:38:02.302Z,99.90
2018-03-02T06:40:29.796Z,99.90
2018-03-02T06:42:57.858Z,99.90
2018-03-02T06:45:26.985Z,99.90
2018-03-02T06:47:54.457Z,99.90
2018-03-02T06:50:21.969Z,99.90
2018-03-02T06:52:49.487Z,99.90
2018-03-02T06:55:17.721Z,99.90
2018-03-02T06:57:49.636Z,99.90
2018-03-02T07:00:17.093Z,99.90
2018-03-02T07:02:44.585Z,99.90
2018-03-02T07:05:12.068Z,99.90
2018-03-02T07:07:39.552Z,99.90
2018-03-02T07:10:07.789Z,99.90
2018-03-02T07:12:36.180Z,99.90
2018-03-02T07:15:04.366Z,99.90
2018-03-02T07:17:31.857Z,99.90
2018-03-02T07:20:00.304Z,99.90
2018-03-02T07:22:28.801Z,99.90
2018-03-02T07:24:56.262Z,99.90
2018-03-02T07:27:29.758Z,99.90
2018-03-02T07:29:57.265Z,99.90
2018-03-02T07:32:25.389Z,99.90
2018-03-02T07:34:52.888Z,99.90
2018-03-02T07:37:21.072Z,99.90
2018-03-02T07:39:48.529Z,99.90
2018-03-02T07:42:16.038Z,99.90
2018-03-02T07:44:44.190Z,99.90
2018-03-02T07:47:11.673Z,99.90
2018-03-02T07:49:39.124Z,99.90
2018-03-02T07:52:06.975Z,99.90
2018-03-02T07:54:34.782Z,99.90
2018-03-02T07:57:02.562Z,99.90
2018-03-02T07:59:30.001Z,99.90
2018-03-02T08:01:58.168Z,99.90
2018-03-02T08:04:26.493Z,99.90
2018-03-02T08:06:53.987Z,99.90
2018-03-02T08:09:21.463Z,99.90
2018-03-02T08:11:49.727Z,99.90
2018-03-02T08:14:17.812Z,99.90
2018-03-02T08:16:46.046Z,99.90
2018-03-02T08:19:13.496Z,99.90
2018-03-02T08:21:40.982Z,99.90
2018-03-02T08:24:09.333Z,99.90
2018-03-02T08:26:37.629Z,99.90
2018-03-02T08:29:09.112Z,99.90
2018-03-02T08:31:37.231Z,99.90
2018-03-02T08:34:04.719Z,99.90
2018-03-02T08:36:32.222Z,99.90
2018-03-02T08:39:00.769Z,99.90
2018-03-02T08:41:28.257Z,99.90
2018-03-02T08:44:00.626Z,99.90
2018-03-02T08:46:28.090Z,99.90
2018-03-02T08:48:57.318Z,99.90
2018-03-02T08:51:24.811Z,99.90
2018-03-02T08:53:52.304Z,99.90
2018-03-02T08:56:19.769Z,99.90
2018-03-02T08:58:47.248Z,99.90
2018-03-02T09:01:14.724Z,99.90
2018-03-02T09:03:43.323Z,99.80
2018-03-02T09:06:11.049Z,99.90
2018-03-02T09:08:38.501Z,99.90
2018-03-02T09:11:06.959Z,99.10
2018-03-02T09:13:35.458Z,99.10
2018-03-02T09:16:03.225Z,99.00
2018-03-02T09:18:30.930Z,98.80
2018-03-02T09:20:59.205Z,98.70
2018-03-02T09:23:27.029Z,99.40
2018-03-02T09:25:55.594Z,98.80
2018-03-02T09:28:23.250Z,98.70
2018-03-02T09:30:50.981Z,98.60
2018-03-02T09:33:19.257Z,98.50
2018-03-02T09:35:47.060Z,98.00
2018-03-02T09:38:14.671Z,97.70
2018-03-02T09:40:42.448Z,97.40
2018-03-02T09:43:10.049Z,97.50
2018-03-02T09:45:38.602Z,97.10
2018-03-02T09:48:06.261Z,97.10
2018-03-02T09:50:33.882Z,96.50
2018-03-02T09:53:03.227Z,96.20
2018-03-02T09:55:30.986Z,96.20
2018-03-02T09:57:58.560Z,95.70
2018-03-02T10:00:26.305Z,95.70
2018-03-02T10:02:53.955Z,95.30
2018-03-02T10:05:22.534Z,95.00
2018-03-02T10:07:50.350Z,94.50
2018-03-02T10:10:18.033Z,93.90
2018-03-02T10:12:47.346Z,92.80
2018-03-02T10:15:20.097Z,92.70
2018-03-02T10:17:48.193Z,93.10
2018-03-02T10:20:16.041Z,93.90
2018-03-02T10:22:44.698Z,93.20
2018-03-02T10:25:12.587Z,92.70
2018-03-02T10:27:40.352Z,92.90
2018-03-02T10:30:08.023Z,93.30
2018-03-02T10:32:35.657Z,92.20
2018-03-02T10:35:03.449Z,92.10
2018-03-02T10:37:31.712Z,91.20
2018-03-02T10:39:59.334Z,91.50
2018-03-02T10:42:26.966Z,90.80
2018-03-02T10:44:54.801Z,90.30
2018-03-02T10:47:22.528Z,89.50
2018-03-02T10:49:53.427Z,90.20
2018-03-02T10:52:21.226Z,90.00
2018-03-02T10:54:48.954Z,88.40
2018-03-02T10:57:16.797Z,88.80
2018-03-02T10:59:44.477Z,87.50
2018-03-02T11:02:18.884Z,87.30
2018-03-02T11:04:47.342Z,85.90
2018-03-02T11:07:15.414Z,86.00
2018-03-02T11:09:43.177Z,83.70
2018-03-02T11:12:11.174Z,83.20
2018-03-02T11:14:40.505Z,80.50
2018-03-02T11:17:08.070Z,82.50
2018-03-02T11:19:35.550Z,81.80
2018-03-02T11:22:03.056Z,80.30
2018-03-02T11:24:30.545Z,79.20
2018-03-02T11:26:58.034Z,77.20
2018-03-02T11:29:25.489Z,75.40
2018-03-02T11:31:52.971Z,74.80
2018-03-02T11:34:20.548Z,72.50
2018-03-02T11:36:48.963Z,73.10
2018-03-02T11:39:16.541Z,74.70
2018-03-02T11:41:44.040Z,73.20
2018-03-02T11:44:11.622Z,73.70
2018-03-02T11:46:43.569Z,76.70
2018-03-02T11:49:11.056Z,70.90
2018-03-02T11:51:39.204Z,68.00
2018-03-02T11:54:06.724Z,67.10
2018-03-02T11:56:34.748Z,65.50
2018-03-02T11:59:02.231Z,63.20
2018-03-02T12:01:29.712Z,63.70
2018-03-02T12:03:58.180Z,63.00
2018-03-02T12:06:25.684Z,60.40
2018-03-02T12:08:53.185Z,59.50
2018-03-02T12:11:20.645Z,58.60
2018-03-02T12:13:48.480Z,56.50
2018-03-02T12:16:15.969Z,55.30
2018-03-02T12:18:43.404Z,53.90
2018-03-02T12:21:11.818Z,53.60
2018-03-02T12:23:39.269Z,53.60
2018-03-02T12:26:06.776Z,51.80
2018-03-02T12:28:36.075Z,51.00
2018-03-02T12:31:03.511Z,51.40
2018-03-02T12:33:34.293Z,51.70
2018-03-02T12:36:01.761Z,50.50
2018-03-02T12:38:29.264Z,49.80
2018-03-02T12:40:56.788Z,49.20
2018-03-02T12:43:26.006Z,48.50
2018-03-02T12:45:53.582Z,48.10
2018-03-02T12:48:24.691Z,49.40
2018-03-02T12:50:52.189Z,49.20
2018-03-02T12:53:19.692Z,48.50
2018-03-02T12:55:47.141Z,49.20
2018-03-02T12:58:16.228Z,49.00
2018-03-02T13:00:43.701Z,49.50
2018-03-02T13:03:14.385Z,46.80
2018-03-02T13:05:41.882Z,47.00
2018-03-02T13:08:09.417Z,46.20
2018-03-02T13:10:37.540Z,46.50
2018-03-02T13:13:05.001Z,46.40
2018-03-02T13:15:33.744Z,46.30
2018-03-02T13:18:03.030Z,44.70
2018-03-02T13:20:30.793Z,44.70
2018-03-02T13:22:58.261Z,45.60
2018-03-02T13:25:30.020Z,46.20
2018-03-02T13:28:10.091Z,45.60
2018-03-02T13:30:38.089Z,45.50
2018-03-02T13:33:17.396Z,47.70
2018-03-02T13:35:44.922Z,46.80
2018-03-02T13:38:12.409Z,46.00
2018-03-02T13:40:52.632Z,45.20
2018-03-02T13:43:20.585Z,45.20
2018-03-02T13:45:48.036Z,44.40
2018-03-02T13:48:40.862Z,44.80
2018-03-02T13:51:09.883Z,44.60
2018-03-02T13:53:37.353Z,44.60
2018-03-02T13:56:04.795Z,44.60
2018-03-02T13:58:32.295Z,44.50
2018-03-02T14:00:59.784Z,44.30
2018-03-02T14:03:39.749Z,44.50
2018-03-02T14:06:07.907Z,45.00
2018-03-02T14:08:36.195Z,45.10
2018-03-02T14:11:04.020Z,45.00
2018-03-02T14:13:31.552Z,44.50
2018-03-02T14:15:59.394Z,44.30
2018-03-02T14:18:27.750Z,44.40
2018-03-02T14:20:55.276Z,44.90
2018-03-02T14:23:22.756Z,45.10
2018-03-02T14:25:50.243Z,44.70
2018-03-02T14:28:19.198Z,44.70
2018-03-02T14:30:46.649Z,43.50
2018-03-02T14:33:14.121Z,43.60
2018-03-02T14:35:45.569Z,44.50
2018-03-02T14:38:13.261Z,45.40
2018-03-02T14:40:40.729Z,45.00
2018-03-02T14:43:08.225Z,44.80
2018-03-02T14:45:35.692Z,44.60
2018-03-02T14:48:03.308Z,43.80
2018-03-02T14:50:32.527Z,44.40
2018-03-02T14:53:00.021Z,44.40
2018-03-02T14:55:27.560Z,44.50
2018-03-02T14:57:55.030Z,44.10
2018-03-02T15:00:23.547Z,45.00
2018-03-02T15:02:51.724Z,45.30
2018-03-02T15:05:23.378Z,46.80
2018-03-02T15:07:51.177Z,46.60
2018-03-02T15:10:19.381Z,45.70
2018-03-02T15:12:49.499Z,46.00
2018-03-02T15:15:16.956Z,46.50
2018-03-02T15:17:44.600Z,46.40
2018-03-02T15:20:12.054Z,46.60
2018-03-02T15:22:39.555Z,48.20
2018-03-02T15:25:08.367Z,47.20
2018-03-02T15:27:36.479Z,46.90
2018-03-02T15:30:04.588Z,47.30
2018-03-02T15:32:32.277Z,48.20
2018-03-02T15:35:01.425Z,47.40
2018-03-02T15:37:29.793Z,47.30
2018-03-02T15:39:57.273Z,48.30
2018-03-02T15:42:25.512Z,48.20
2018-03-02T15:44:53.757Z,47.90
2018-03-02T15:47:21.238Z,47.90
2018-03-02T15:49:48.669Z,47.70
2018-03-02T15:52:16.176Z,48.20
2018-03-02T15:54:43.770Z,49.20
2018-03-02T15:57:11.941Z,49.50
2018-03-02T15:59:40.209Z,49.40
2018-03-02T16:02:07.711Z,49.60
2018-03-02T16:04:35.168Z,50.20
2018-03-02T16:07:03.425Z,50.10
2018-03-02T16:09:30.933Z,50.10
2018-03-02T16:11:58.579Z,50.70
2018-03-02T16:14:26.804Z,50.50
2018-03-02T16:16:54.314Z,50.60
2018-03-02T16:19:21.888Z,51.90
2018-03-02T16:21:49.349Z,51.40
2018-03-02T16:24:16.790Z,51.60
2018-03-02T16:26:44.280Z,52.80
2018-03-02T16:29:12.054Z,52.60
2018-03-02T16:31:39.505Z,53.00
2018-03-02T16:34:09.794Z,52.20
2018-03-02T16:36:43.309Z,52.70
2018-03-02T16:39:10.756Z,52.60
2018-03-02T16:41:39.472Z,54.30
2018-03-02T16:44:07.757Z,54.90
2018-03-02T16:46:35.236Z,55.10
2018-03-02T16:49:03.565Z,55.40
2018-03-02T16:51:32.794Z,56.20
2018-03-02T16:54:00.248Z,56.20
2018-03-02T16:56:28.649Z,56.00
2018-03-02T16:58:57.724Z,56.20
2018-03-02T17:01:25.200Z,57.00
2018-03-02T17:03:52.660Z,57.50
2018-03-02T17:06:20.177Z,58.20
2018-03-02T17:08:48.467Z,56.70
2018-03-02T17:11:17.174Z,58.10
2018-03-02T17:13:45.517Z,57.90
2018-03-02T17:16:13.596Z,60.60
2018-03-02T17:18:41.078Z,60.20
2018-03-02T17:21:08.594Z,60.10
2018-03-02T17:23:36.752Z,59.10
2018-03-02T17:26:04.233Z,58.60
2018-03-02T17:28:32.990Z,59.70
2018-03-02T17:31:01.314Z,59.60
2018-03-02T17:33:30.513Z,59.40
2018-03-02T17:35:57.977Z,59.40
2018-03-02T17:38:25.452Z,59.90
2018-03-02T17:40:52.945Z,61.00
2018-03-02T17:43:20.467Z,63.20
2018-03-02T17:45:47.912Z,61.30
2018-03-02T17:48:16.669Z,61.50
2018-03-02T17:50:44.207Z,61.50
2018-03-02T17:53:11.642Z,61.60
2018-03-02T17:55:39.165Z,63.60
2018-03-02T17:58:06.609Z,63.70
2018-03-02T18:00:34.173Z,63.10
2018-03-02T18:03:03.339Z,62.50
2018-03-02T18:05:31.129Z,62.40
2018-03-02T18:08:02.771Z,62.90
2018-03-02T18:10:30.241Z,64.40
2018-03-02T18:12:59.975Z,65.40
2018-03-02T18:15:29.137Z,66.20
2018-03-02T18:17:57.500Z,66.10
2018-03-02T18:20:24.983Z,68.40
2018-03-02T18:22:53.386Z,68.10
2018-03-02T18:25:20.849Z,69.40
2018-03-02T18:27:49.008Z,68.30
2018-03-02T18:30:16.471Z,68.90
2018-03-02T18:32:43.930Z,69.60
2018-03-02T18:35:13.101Z,70.00
2018-03-02T18:37:40.581Z,70.00
2018-03-02T18:40:08.162Z,70.30
2018-03-02T18:42:36.494Z,71.80
2018-03-02T18:45:04.783Z,72.20
2018-03-02T18:47:34.279Z,73.30
2018-03-02T18:50:01.803Z,72.50
2018-03-02T18:52:30.961Z,73.30
2018-03-02T18:54:59.137Z,72.70
2018-03-02T18:57:26.876Z,72.90
2018-03-02T18:59:54.356Z,75.10
2018-03-02T19:02:22.658Z,75.60
2018-03-02T19:04:52.117Z,76.40
2018-03-02T19:07:19.592Z,76.40
2018-03-02T19:09:47.080Z,76.80
2018-03-02T19:12:14.563Z,77.50
2018-03-02T19:14:42.887Z,78.70
2018-03-02T19:17:10.785Z,78.70
2018-03-02T19:19:38.331Z,79.30
2018-03-02T19:22:05.793Z,79.80
2018-03-02T19:24:35.171Z,81.10
2018-03-02T19:27:03.436Z,81.60
2018-03-02T19:29:30.925Z,83.00
2018-03-02T19:31:58.389Z,83.70
2018-03-02T19:34:25.956Z,83.10
2018-03-02T19:36:54.316Z,83.50
2018-03-02T19:39:26.497Z,83.60
2018-03-02T19:41:54.028Z,84.80
2018-03-02T19:44:21.765Z,86.10
2018-03-02T19:46:50.768Z,87.40
2018-03-02T19:49:18.212Z,87.40
2018-03-02T19:51:45.756Z,88.30
2018-03-02T19:54:13.336Z,88.70
2018-03-02T19:56:41.159Z,90.00
2018-03-02T19:59:08.897Z,90.50
2018-03-02T20:01:36.379Z,91.20
2018-03-02T20:04:04.639Z,91.80
2018-03-02T20:06:32.189Z,92.50
2018-03-02T20:09:00.491Z,93.40
2018-03-02T20:11:28.443Z,93.50
2018-03-02T20:13:55.967Z,93.10
2018-03-02T20:16:23.946Z,93.10
2018-03-02T20:18:51.443Z,93.50
2018-03-02T20:21:18.936Z,94.10
2018-03-02T20:23:48.267Z,94.40
2018-03-02T20:26:17.821Z,94.30
2018-03-02T20:28:46.254Z,95.10
2018-03-02T20:31:13.719Z,95.00
2018-03-02T20:33:41.349Z,96.00
2018-03-02T20:36:10.479Z,97.20
2018-03-02T20:38:38.056Z,98.10
2018-03-02T20:41:09.848Z,98.50
2018-03-02T20:43:37.453Z,98.40
2018-03-02T20:46:04.962Z,98.70
2018-03-02T20:48:32.449Z,98.90
2018-03-02T20:51:00.670Z,98.60
2018-03-02T20:53:28.152Z,98.60
2018-03-02T20:55:56.526Z,98.70
2018-03-02T20:58:24.021Z,99.00
2018-03-02T21:00:52.285Z,99.40
2018-03-02T21:03:19.741Z,99.40
2018-03-02T21:05:47.218Z,99.80
2018-03-02T21:08:14.716Z,99.90
2018-03-02T21:10:42.220Z,99.90
2018-03-02T21:13:11.365Z,99.90
2018-03-02T21:15:40.571Z,99.90
2018-03-02T21:18:08.026Z,99.90
2018-03-02T21:20:35.536Z,99.90
2018-03-02T21:23:03.094Z,99.90
2018-03-02T21:25:30.523Z,99.90
2018-03-02T21:27:58.824Z,99.90
2018-03-02T21:30:26.323Z,99.90
2018-03-02T21:32:54.731Z,99.90
2018-03-02T21:35:22.194Z,99.90
2018-03-02T21:37:49.705Z,99.90
2018-03-02T21:40:17.157Z,99.90
2018-03-02T21:42:44.662Z,99.90
2018-03-02T21:45:12.152Z,99.90
2018-03-02T21:47:39.635Z,99.90
2018-03-02T21:50:08.804Z,99.90
2018-03-02T21:52:37.779Z,99.90
2018-03-02T21:55:06.090Z,99.90
2018-03-02T21:57:37.356Z,99.90
2018-03-02T22:00:04.893Z,99.90
2018-03-02T22:02:34.077Z,99.90
2018-03-02T22:05:01.541Z,99.90
2018-03-02T22:07:29.164Z,99.90
2018-03-02T22:09:57.705Z,99.90
2018-03-02T22:12:25.568Z,99.90
2018-03-02T22:14:53.266Z,99.90
2018-03-02T22:17:20.754Z,99.90
2018-03-02T22:19:48.237Z,99.90
2018-03-02T22:22:17.002Z,99.90
2018-03-02T22:24:44.492Z,99.90
2018-03-02T22:27:15.426Z,99.90
2018-03-02T22:29:42.916Z,99.90
2018-03-02T22:32:10.376Z,99.90
2018-03-02T22:34:37.929Z,99.90
2018-03-02T22:37:07.093Z,99.90
2018-03-02T22:39:35.337Z,99.90
2018-03-02T22:42:02.858Z,99.90
2018-03-02T22:44:30.369Z,99.90
2018-03-02T22:46:57.868Z,99.90
2018-03-02T22:49:26.968Z,99.90
2018-03-02T22:51:55.232Z,99.90
2018-03-02T22:54:23.477Z,99.90
2018-03-02T22:56:51.172Z,99.90
2018-03-02T22:59:26.157Z,99.90
2018-03-02T23:01:54.520Z,99.90
2018-03-02T23:04:22.040Z,99.90
2018-03-02T23:06:49.875Z,99.90
2018-03-02T23:09:17.340Z,99.90
2018-03-02T23:11:44.808Z,99.90
2018-03-02T23:14:12.276Z,99.90
2018-03-02T23:16:39.737Z,99.90
2018-03-02T23:19:07.262Z,99.90
2018-03-02T23:21:35.082Z,99.90
2018-03-02T23:24:02.638Z,99.90
2018-03-02T23:26:30.119Z,99.90
2018-03-02T23:28:57.739Z,99.90
2018-03-02T23:31:25.218Z,99.90
2018-03-02T23:33:52.699Z,99.90
2018-03-02T23:36:20.896Z,99.90
2018-03-02T23:38:48.942Z,99.90
2018-03-02T23:41:16.448Z,99.90
2018-03-02T23:43:44.625Z,99.90
2018-03-02T23:46:12.083Z,99.90
2018-03-02T23:48:40.564Z,99.90
2018-03-02T23:51:08.087Z,99.90
2018-03-02T23:53:35.557Z,99.90
2018-03-02T23:56:03.045Z,99.90
2018-03-02T23:58:30.497Z,99.90
